sensor_id;sensor_type;location;lat;lon;timestamp;pressure;altitude;pressure_sealevel;temperature;humidity
33286;BME280;19656;50.096;20.014;2023-01-27T00:02:42;99211.68;;;2.69;64.44
33286;BME280;19656;50.096;20.014;2023-01-27T00:07:48;99213.64;;;2.67;64.42
33286;BME280;19656;50.096;20.014;2023-01-27T00:12:52;99212.30;;;2.65;64.35
33286;BME280;19656;50.096;20.014;2023-01-27T00:18:14;99210.06;;;2.64;64.43
33286;BME280;19656;50.096;20.014;2023-01-27T00:23:23;99208.19;;;2.62;64.35
33286;BME280;19656;50.096;20.014;2023-01-27T00:28:46;99209.48;;;2.59;64.23
33286;BME280;19656;50.096;20.014;2023-01-27T00:33:50;99209.89;;;2.64;64.23
33286;BME280;19656;50.096;20.014;2023-01-27T00:38:56;99211.89;;;2.60;64.18
33286;BME280;19656;50.096;20.014;2023-01-27T00:44:00;99211.96;;;2.57;64.65
33286;BME280;19656;50.096;20.014;2023-01-27T00:49:03;99207.23;;;2.57;64.68
33286;BME280;19656;50.096;20.014;2023-01-27T00:54:07;99203.73;;;2.58;64.42
33286;BME280;19656;50.096;20.014;2023-01-27T00:59:10;99204.08;;;2.58;64.42
33286;BME280;19656;50.096;20.014;2023-01-27T01:04:16;99202.19;;;2.56;64.29
33286;BME280;19656;50.096;20.014;2023-01-27T01:09:23;99195.45;;;2.53;63.92
33286;BME280;19656;50.096;20.014;2023-01-27T01:14:27;99195.60;;;2.54;63.98
33286;BME280;19656;50.096;20.014;2023-01-27T01:19:31;99194.48;;;2.57;64.21
33286;BME280;19656;50.096;20.014;2023-01-27T01:24:41;99195.22;;;2.55;63.81
33286;BME280;19656;50.096;20.014;2023-01-27T01:29:45;99197.05;;;2.52;63.80
33286;BME280;19656;50.096;20.014;2023-01-27T01:34:48;99190.05;;;2.53;63.95
33286;BME280;19656;50.096;20.014;2023-01-27T01:39:53;99188.69;;;2.51;63.87
33286;BME280;19656;50.096;20.014;2023-01-27T01:50:30;99187.38;;;2.48;63.79
33286;BME280;19656;50.096;20.014;2023-01-27T01:55:35;99188.64;;;2.46;63.73
33286;BME280;19656;50.096;20.014;2023-01-27T02:00:40;99190.21;;;2.46;63.43
33286;BME280;19656;50.096;20.014;2023-01-27T02:05:46;99190.90;;;2.47;63.29
33286;BME280;19656;50.096;20.014;2023-01-27T02:10:50;99185.41;;;2.49;63.30
33286;BME280;19656;50.096;20.014;2023-01-27T02:15:56;99185.09;;;2.48;63.21
33286;BME280;19656;50.096;20.014;2023-01-27T02:21:00;99190.00;;;2.47;63.30
33286;BME280;19656;50.096;20.014;2023-01-27T02:26:17;99190.91;;;2.46;63.18
33286;BME280;19656;50.096;20.014;2023-01-27T02:31:23;99197.05;;;2.46;63.24
33286;BME280;19656;50.096;20.014;2023-01-27T02:36:29;99194.73;;;2.48;63.13
33286;BME280;19656;50.096;20.014;2023-01-27T02:41:38;99194.55;;;2.47;63.23
33286;BME280;19656;50.096;20.014;2023-01-27T02:46:43;99195.08;;;2.47;63.12
33286;BME280;19656;50.096;20.014;2023-01-27T02:51:46;99192.13;;;2.47;62.99
33286;BME280;19656;50.096;20.014;2023-01-27T02:56:50;99191.44;;;2.46;62.84
33286;BME280;19656;50.096;20.014;2023-01-27T03:01:53;99195.11;;;2.47;63.27
33286;BME280;19656;50.096;20.014;2023-01-27T03:06:57;99195.63;;;2.46;63.00
33286;BME280;19656;50.096;20.014;2023-01-27T03:12:02;99196.42;;;2.43;63.00
33286;BME280;19656;50.096;20.014;2023-01-27T03:17:23;99195.18;;;2.44;62.70
33286;BME280;19656;50.096;20.014;2023-01-27T03:22:45;99190.16;;;2.42;62.55
33286;BME280;19656;50.096;20.014;2023-01-27T03:27:51;99189.63;;;2.42;62.56
33286;BME280;19656;50.096;20.014;2023-01-27T03:33:02;99191.43;;;2.40;62.65
33286;BME280;19656;50.096;20.014;2023-01-27T03:38:19;99186.75;;;2.39;62.62
33286;BME280;19656;50.096;20.014;2023-01-27T03:43:41;99179.58;;;2.38;62.41
33286;BME280;19656;50.096;20.014;2023-01-27T03:49:08;99181.33;;;2.38;62.32
33286;BME280;19656;50.096;20.014;2023-01-27T03:54:12;99180.63;;;2.38;62.23
33286;BME280;19656;50.096;20.014;2023-01-27T03:59:16;99181.70;;;2.44;62.72
33286;BME280;19656;50.096;20.014;2023-01-27T04:04:20;99185.45;;;2.48;62.22
33286;BME280;19656;50.096;20.014;2023-01-27T04:09:41;99182.70;;;2.52;61.95
33286;BME280;19656;50.096;20.014;2023-01-27T04:14:45;99186.54;;;2.53;61.39
33286;BME280;19656;50.096;20.014;2023-01-27T04:19:48;99184.69;;;2.50;60.95
33286;BME280;19656;50.096;20.014;2023-01-27T04:24:51;99184.75;;;2.47;61.35
33286;BME280;19656;50.096;20.014;2023-01-27T04:29:55;99183.06;;;2.52;62.15
33286;BME280;19656;50.096;20.014;2023-01-27T04:34:59;99181.48;;;2.52;61.26
33286;BME280;19656;50.096;20.014;2023-01-27T04:40:03;99181.98;;;2.47;61.44
33286;BME280;19656;50.096;20.014;2023-01-27T04:45:07;99190.09;;;2.44;61.73
33286;BME280;19656;50.096;20.014;2023-01-27T04:50:13;99189.67;;;2.41;61.65
33286;BME280;19656;50.096;20.014;2023-01-27T04:55:16;99186.86;;;2.40;61.54
33286;BME280;19656;50.096;20.014;2023-01-27T05:00:20;99184.99;;;2.39;61.28
33286;BME280;19656;50.096;20.014;2023-01-27T05:05:24;99189.77;;;2.36;61.59
33286;BME280;19656;50.096;20.014;2023-01-27T05:10:27;99193.15;;;2.41;61.91
33286;BME280;19656;50.096;20.014;2023-01-27T05:15:31;99193.54;;;2.40;61.12
33286;BME280;19656;50.096;20.014;2023-01-27T05:20:35;99200.05;;;2.38;61.11
33286;BME280;19656;50.096;20.014;2023-01-27T05:25:42;99198.73;;;2.35;61.25
33286;BME280;19656;50.096;20.014;2023-01-27T05:30:46;99201.56;;;2.34;61.54
33286;BME280;19656;50.096;20.014;2023-01-27T05:35:50;99197.23;;;2.33;61.60
33286;BME280;19656;50.096;20.014;2023-01-27T05:40:59;99194.07;;;2.33;61.46
33286;BME280;19656;50.096;20.014;2023-01-27T05:46:12;99200.38;;;2.32;61.77
33286;BME280;19656;50.096;20.014;2023-01-27T05:51:18;99201.27;;;2.32;61.68
33286;BME280;19656;50.096;20.014;2023-01-27T05:56:22;99204.20;;;2.34;61.66
33286;BME280;19656;50.096;20.014;2023-01-27T06:01:28;99208.04;;;2.34;61.75
33286;BME280;19656;50.096;20.014;2023-01-27T06:06:33;99212.61;;;2.33;61.86
33286;BME280;19656;50.096;20.014;2023-01-27T06:11:36;99221.05;;;2.32;61.55
33286;BME280;19656;50.096;20.014;2023-01-27T06:16:39;99226.66;;;2.31;61.49
33286;BME280;19656;50.096;20.014;2023-01-27T06:21:43;99223.69;;;2.31;60.84
33286;BME280;19656;50.096;20.014;2023-01-27T06:26:46;99226.52;;;2.30;60.58
33286;BME280;19656;50.096;20.014;2023-01-27T06:31:50;99230.38;;;2.30;60.59
33286;BME280;19656;50.096;20.014;2023-01-27T06:36:53;99234.23;;;2.30;61.02
33286;BME280;19656;50.096;20.014;2023-01-27T06:41:57;99234.77;;;2.29;61.21
33286;BME280;19656;50.096;20.014;2023-01-27T06:47:00;99234.45;;;2.28;61.20
33286;BME280;19656;50.096;20.014;2023-01-27T06:52:04;99238.53;;;2.26;61.57
33286;BME280;19656;50.096;20.014;2023-01-27T06:57:10;99243.81;;;2.25;61.44
33286;BME280;19656;50.096;20.014;2023-01-27T07:02:13;99241.20;;;2.25;61.80
33286;BME280;19656;50.096;20.014;2023-01-27T07:07:17;99249.86;;;2.28;61.44
33286;BME280;19656;50.096;20.014;2023-01-27T07:12:20;99252.11;;;2.29;61.60
33286;BME280;19656;50.096;20.014;2023-01-27T07:17:24;99247.86;;;2.31;61.01
33286;BME280;19656;50.096;20.014;2023-01-27T07:22:30;99248.75;;;2.30;61.05
33286;BME280;19656;50.096;20.014;2023-01-27T07:27:35;99251.23;;;2.29;61.01
33286;BME280;19656;50.096;20.014;2023-01-27T07:32:38;99253.69;;;2.29;60.72
33286;BME280;19656;50.096;20.014;2023-01-27T07:37:42;99255.91;;;2.30;60.70
33286;BME280;19656;50.096;20.014;2023-01-27T07:42:46;99258.13;;;2.33;60.49
33286;BME280;19656;50.096;20.014;2023-01-27T07:47:50;99260.55;;;2.34;60.36
33286;BME280;19656;50.096;20.014;2023-01-27T07:53:00;99256.81;;;2.37;60.20
33286;BME280;19656;50.096;20.014;2023-01-27T07:58:08;99259.63;;;2.36;59.81
33286;BME280;19656;50.096;20.014;2023-01-27T08:03:23;99260.56;;;2.34;59.89
33286;BME280;19656;50.096;20.014;2023-01-27T08:08:28;99262.99;;;2.35;59.73
33286;BME280;19656;50.096;20.014;2023-01-27T08:13:33;99270.62;;;2.38;59.99
33286;BME280;19656;50.096;20.014;2023-01-27T08:18:39;99275.51;;;2.39;59.99
33286;BME280;19656;50.096;20.014;2023-01-27T08:23:46;99267.58;;;2.40;60.01
33286;BME280;19656;50.096;20.014;2023-01-27T08:28:51;99275.56;;;2.43;60.37
33286;BME280;19656;50.096;20.014;2023-01-27T08:33:55;99276.41;;;2.44;60.24
33286;BME280;19656;50.096;20.014;2023-01-27T08:39:02;99278.14;;;2.46;60.27
33286;BME280;19656;50.096;20.014;2023-01-27T08:44:07;99283.49;;;2.48;59.98
33286;BME280;19656;50.096;20.014;2023-01-27T08:49:13;99282.36;;;2.51;59.68
33286;BME280;19656;50.096;20.014;2023-01-27T08:54:20;99286.25;;;2.56;59.77
33286;BME280;19656;50.096;20.014;2023-01-27T08:59:25;99290.27;;;2.64;59.77
33286;BME280;19656;50.096;20.014;2023-01-27T09:04:30;99293.68;;;2.68;59.61
33286;BME280;19656;50.096;20.014;2023-01-27T09:09:38;99288.70;;;2.70;59.51
33286;BME280;19656;50.096;20.014;2023-01-27T09:14:44;99292.17;;;2.71;59.01
33286;BME280;19656;50.096;20.014;2023-01-27T09:19:48;99293.52;;;2.74;59.04
33286;BME280;19656;50.096;20.014;2023-01-27T09:24:53;99296.61;;;2.76;59.24
33286;BME280;19656;50.096;20.014;2023-01-27T09:29:57;99296.77;;;2.76;58.82
33286;BME280;19656;50.096;20.014;2023-01-27T09:35:02;99295.56;;;2.76;58.95
33286;BME280;19656;50.096;20.014;2023-01-27T10:13:17;99277.19;;;3.07;59.65
33286;BME280;19656;50.096;20.014;2023-01-27T10:18:41;99269.60;;;3.16;59.65
33286;BME280;19656;50.096;20.014;2023-01-27T10:29:34;99262.94;;;3.22;59.50
33286;BME280;19656;50.096;20.014;2023-01-27T10:34:36;99262.08;;;3.27;60.18
33286;BME280;19656;50.096;20.014;2023-01-27T10:39:55;99261.83;;;3.41;60.29
33286;BME280;19656;50.096;20.014;2023-01-27T10:45:22;99265.78;;;3.44;59.33
33286;BME280;19656;50.096;20.014;2023-01-27T10:50:33;99260.52;;;3.44;59.21
33286;BME280;19656;50.096;20.014;2023-01-27T10:55:59;99264.39;;;3.44;59.17
33286;BME280;19656;50.096;20.014;2023-01-27T11:01:06;99261.80;;;3.43;59.54
33286;BME280;19656;50.096;20.014;2023-01-27T11:06:33;99265.83;;;3.43;59.51
33286;BME280;19656;50.096;20.014;2023-01-27T11:11:40;99270.73;;;3.43;60.50
33286;BME280;19656;50.096;20.014;2023-01-27T11:16:52;99264.39;;;4.39;62.22
33286;BME280;19656;50.096;20.014;2023-01-27T11:21:57;99266.16;;;4.28;58.53
33286;BME280;19656;50.096;20.014;2023-01-27T11:27:24;99262.95;;;4.14;58.21
33286;BME280;19656;50.096;20.014;2023-01-27T11:32:41;99268.17;;;4.04;58.31
33286;BME280;19656;50.096;20.014;2023-01-27T11:37:51;99267.14;;;3.98;58.48
33286;BME280;19656;50.096;20.014;2023-01-27T11:43:14;99267.14;;;3.92;58.15
33286;BME280;19656;50.096;20.014;2023-01-27T11:48:19;99267.72;;;3.85;58.25
33286;BME280;19656;50.096;20.014;2023-01-27T11:53:28;99268.56;;;3.74;58.00
33286;BME280;19656;50.096;20.014;2023-01-27T11:59:00;99270.35;;;3.68;58.65
33286;BME280;19656;50.096;20.014;2023-01-27T12:09:36;99281.83;;;3.60;58.88
33286;BME280;19656;50.096;20.014;2023-01-27T12:19:54;99279.72;;;3.54;59.22
33286;BME280;19656;50.096;20.014;2023-01-27T12:25:02;99280.54;;;3.50;59.24
33286;BME280;19656;50.096;20.014;2023-01-27T12:30:19;99269.06;;;3.46;59.81
33286;BME280;19656;50.096;20.014;2023-01-27T12:35:31;99266.11;;;3.45;59.99
33286;BME280;19656;50.096;20.014;2023-01-27T12:40:40;99270.54;;;3.44;60.19
33286;BME280;19656;50.096;20.014;2023-01-27T12:51:20;99266.64;;;3.39;60.74
33286;BME280;19656;50.096;20.014;2023-01-27T12:56:24;99259.84;;;3.38;60.58
33286;BME280;19656;50.096;20.014;2023-01-27T13:01:35;99257.27;;;3.36;60.99
33286;BME280;19656;50.096;20.014;2023-01-27T13:06:46;99258.40;;;3.39;60.82
33286;BME280;19656;50.096;20.014;2023-01-27T13:11:54;99259.07;;;3.40;61.12
33286;BME280;19656;50.096;20.014;2023-01-27T13:16:59;99261.02;;;3.40;60.61
33286;BME280;19656;50.096;20.014;2023-01-27T13:22:03;99260.34;;;3.39;60.66
33286;BME280;19656;50.096;20.014;2023-01-27T13:27:14;99259.33;;;3.37;61.09
33286;BME280;19656;50.096;20.014;2023-01-27T13:32:28;99261.49;;;3.35;60.90
33286;BME280;19656;50.096;20.014;2023-01-27T13:37:50;99265.56;;;3.34;61.06
33286;BME280;19656;50.096;20.014;2023-01-27T13:43:21;99270.21;;;3.37;60.80
33286;BME280;19656;50.096;20.014;2023-01-27T13:48:37;99270.92;;;3.37;60.92
33286;BME280;19656;50.096;20.014;2023-01-27T13:53:45;99274.36;;;3.33;61.01
33286;BME280;19656;50.096;20.014;2023-01-27T14:04:31;99284.31;;;3.28;61.41
33286;BME280;19656;50.096;20.014;2023-01-27T14:25:48;99300.13;;;3.45;61.32
33286;BME280;19656;50.096;20.014;2023-01-27T14:31:20;99299.52;;;3.42;60.83
33286;BME280;19656;50.096;20.014;2023-01-27T14:47:27;99297.55;;;3.31;61.12
33286;BME280;19656;50.096;20.014;2023-01-27T14:52:39;99299.03;;;3.29;60.93
33286;BME280;19656;50.096;20.014;2023-01-27T14:57:59;99302.17;;;3.29;60.93
33286;BME280;19656;50.096;20.014;2023-01-27T15:24:52;99342.65;;;3.24;59.64
33286;BME280;19656;50.096;20.014;2023-01-27T15:30:33;99342.70;;;3.28;59.40
33286;BME280;19656;50.096;20.014;2023-01-27T15:35:40;99340.00;;;3.25;59.09
33286;BME280;19656;50.096;20.014;2023-01-27T15:41:13;99341.16;;;3.21;58.96
33286;BME280;19656;50.096;20.014;2023-01-27T15:46:23;99339.62;;;3.19;59.08
33286;BME280;19656;50.096;20.014;2023-01-27T15:51:30;99339.20;;;3.15;58.52
33286;BME280;19656;50.096;20.014;2023-01-27T15:56:45;99340.11;;;3.14;57.52
33286;BME280;19656;50.096;20.014;2023-01-27T16:02:14;99339.48;;;3.12;56.35
33286;BME280;19656;50.096;20.014;2023-01-27T16:07:30;99343.65;;;3.13;56.86
33286;BME280;19656;50.096;20.014;2023-01-27T16:12:39;99335.45;;;4.46;61.55
33286;BME280;19656;50.096;20.014;2023-01-27T16:28:31;99339.14;;;3.85;53.75
33286;BME280;19656;50.096;20.014;2023-01-27T16:33:38;99336.86;;;3.67;53.96
33286;BME280;19656;50.096;20.014;2023-01-27T16:38:43;99342.80;;;3.80;55.82
33286;BME280;19656;50.096;20.014;2023-01-27T16:54:25;99352.61;;;3.50;53.00
33286;BME280;19656;50.096;20.014;2023-01-27T16:59:36;99358.44;;;3.36;52.87
33286;BME280;19656;50.096;20.014;2023-01-27T17:04:50;99364.48;;;3.27;53.31
33286;BME280;19656;50.096;20.014;2023-01-27T17:09:57;99368.55;;;3.19;53.43
33286;BME280;19656;50.096;20.014;2023-01-27T17:15:28;99367.40;;;3.09;53.86
33286;BME280;19656;50.096;20.014;2023-01-27T17:20:33;99378.23;;;3.05;56.04
33286;BME280;19656;50.096;20.014;2023-01-27T17:25:40;99380.16;;;3.43;55.55
33286;BME280;19656;50.096;20.014;2023-01-27T17:30:44;99380.95;;;3.41;53.97
33286;BME280;19656;50.096;20.014;2023-01-27T17:35:54;99381.33;;;3.26;53.61
33286;BME280;19656;50.096;20.014;2023-01-27T17:41:00;99379.17;;;3.15;53.61
33286;BME280;19656;50.096;20.014;2023-01-27T17:51:12;99385.66;;;2.95;54.42
33286;BME280;19656;50.096;20.014;2023-01-27T17:56:27;99389.23;;;2.92;54.51
33286;BME280;19656;50.096;20.014;2023-01-27T18:01:33;99393.97;;;2.92;54.64
33286;BME280;19656;50.096;20.014;2023-01-27T18:06:40;99399.99;;;2.89;54.79
33286;BME280;19656;50.096;20.014;2023-01-27T18:11:54;99396.73;;;2.87;55.06
33286;BME280;19656;50.096;20.014;2023-01-27T18:17:05;99400.23;;;2.87;55.18
33286;BME280;19656;50.096;20.014;2023-01-27T18:22:26;99400.74;;;2.95;55.69
33286;BME280;19656;50.096;20.014;2023-01-27T18:27:34;99414.65;;;2.92;54.94
33286;BME280;19656;50.096;20.014;2023-01-27T18:32:42;99423.39;;;2.86;55.19
33286;BME280;19656;50.096;20.014;2023-01-27T18:38:01;99427.21;;;2.87;55.60
33286;BME280;19656;50.096;20.014;2023-01-27T18:43:07;99438.34;;;2.90;56.16
33286;BME280;19656;50.096;20.014;2023-01-27T18:48:15;99441.25;;;2.86;55.45
33286;BME280;19656;50.096;20.014;2023-01-27T18:53:19;99450.56;;;3.00;56.66
33286;BME280;19656;50.096;20.014;2023-01-27T18:58:24;99454.71;;;2.94;54.52
33286;BME280;19656;50.096;20.014;2023-01-27T19:03:29;99458.47;;;2.84;54.74
33286;BME280;19656;50.096;20.014;2023-01-27T19:08:38;99461.23;;;2.79;54.68
33286;BME280;19656;50.096;20.014;2023-01-27T19:13:44;99464.47;;;2.75;54.74
33286;BME280;19656;50.096;20.014;2023-01-27T19:18:48;99462.67;;;2.70;54.60
33286;BME280;19656;50.096;20.014;2023-01-27T19:26:34;99467.98;;;2.82;55.22
33286;BME280;19656;50.096;20.014;2023-01-27T19:32:39;99472.96;;;2.79;54.13
33286;BME280;19656;50.096;20.014;2023-01-27T19:44:37;99459.34;;;4.16;54.95
33286;BME280;19656;50.096;20.014;2023-01-27T19:56:39;99459.82;;;3.49;53.24
33286;BME280;19656;50.096;20.014;2023-01-27T20:08:44;99474.81;;;3.12;54.17
33286;BME280;19656;50.096;20.014;2023-01-27T20:13:52;99482.40;;;3.02;54.31
33286;BME280;19656;50.096;20.014;2023-01-27T20:19:20;99486.42;;;2.95;54.53
33286;BME280;19656;50.096;20.014;2023-01-27T21:28:03;99486.09;;;2.48;57.17
33286;BME280;19656;50.096;20.014;2023-01-27T21:46:18;99483.30;;;2.48;56.91
33286;BME280;19656;50.096;20.014;2023-01-27T22:08:12;99487.94;;;2.44;57.53
33286;BME280;19656;50.096;20.014;2023-01-27T22:14:05;99482.33;;;2.44;58.00
33286;BME280;19656;50.096;20.014;2023-01-27T23:05:05;99470.98;;;2.35;57.54
33286;BME280;19656;50.096;20.014;2023-01-27T23:10:52;99474.67;;;2.34;57.42
33286;BME280;19656;50.096;20.014;2023-01-27T23:17:41;99468.98;;;2.38;57.50
33286;BME280;19656;50.096;20.014;2023-01-27T23:28:44;99472.47;;;2.39;57.75
33286;BME280;19656;50.096;20.014;2023-01-27T23:47:42;99455.88;;;2.37;57.61
